Time;durP1;ratioP1;P1;durP2;ratioP2;P2;SDS_P1;SDS_P2;PMS_P1;PMS_P2;Temp;Humidity;BMP_temperature;BMP_pressure;BME280_temperature;BME280_humidity;BME280_pressure;Samples;Min_cycle;Max_cycle;Signal;HPM_P1;HPM_P2
2021/06/26 00:01:35;;;;;;;8.48;6.90;;;18.30;75.40;;;;;;5072429;28;20029;-89
2021/06/26 00:04:01;;;;;;;8.80;7.55;;;18.30;75.50;;;;;;5071038;28;20036;-90
2021/06/26 00:06:26;;;;;;;8.63;7.28;;;18.30;75.70;;;;;;5071479;28;20024;-90
2021/06/26 00:08:52;;;;;;;11.00;8.80;;;18.30;75.70;;;;;;5070873;28;20060;-89
2021/06/26 00:11:21;;;;;;;9.93;7.28;;;18.20;75.80;;;;;;5070063;28;20568;-90
2021/06/26 00:13:47;;;;;;;10.75;8.07;;;18.20;76.10;;;;;;5071882;28;20024;-89
2021/06/26 00:16:13;;;;;;;9.27;7.35;;;18.20;76.10;;;;;;5071771;28;20032;-89
2021/06/26 00:18:39;;;;;;;8.15;6.63;;;18.20;76.10;;;;;;5071268;28;20017;-89
2021/06/26 00:21:04;;;;;;;9.25;7.63;;;18.20;76.00;;;;;;5070317;28;20501;-88
2021/06/26 00:23:30;;;;;;;9.40;7.45;;;18.10;76.00;;;;;;5066917;28;20055;-92
2021/06/26 00:25:58;;;;;;;9.55;7.18;;;18.10;76.10;;;;;;5071729;28;20075;-92
2021/06/26 00:28:24;;;;;;;10.85;8.13;;;18.10;76.10;;;;;;5071636;28;20056;-92
2021/06/26 00:30:49;;;;;;;11.30;7.97;;;18.10;76.00;;;;;;5072745;28;20028;-91
2021/06/26 00:33:17;;;;;;;8.95;6.85;;;18.00;76.10;;;;;;5072067;28;20021;-91
2021/06/26 00:35:43;;;;;;;9.65;7.50;;;18.10;76.30;;;;;;5072726;28;20033;-91
2021/06/26 00:38:08;;;;;;;9.35;7.55;;;18.00;76.20;;;;;;5058714;28;20029;-91
2021/06/26 00:40:34;;;;;;;9.07;7.57;;;18.00;76.20;;;;;;5072468;28;20035;-93
2021/06/26 00:42:59;;;;;;;7.70;6.30;;;18.00;76.20;;;;;;5071324;28;20039;-92
2021/06/26 00:45:25;;;;;;;9.07;7.38;;;18.00;76.20;;;;;;5068382;28;20107;-91
2021/06/26 00:47:51;;;;;;;9.20;7.63;;;18.00;76.10;;;;;;5068155;28;20020;-90
2021/06/26 00:50:20;;;;;;;10.10;7.05;;;18.00;76.00;;;;;;5068198;28;20035;-90
2021/06/26 00:52:49;;;;;;;8.95;7.35;;;17.90;76.00;;;;;;5063914;28;20028;-91
2021/06/26 00:55:16;;;;;;;8.48;7.03;;;17.90;76.10;;;;;;5067694;28;20056;-91
2021/06/26 00:57:54;;;;;;;8.60;6.90;;;17.90;76.20;;;;;;5071237;28;20031;-91
2021/06/26 01:00:20;;;;;;;8.75;6.93;;;17.80;76.40;;;;;;5070008;28;20028;-91
2021/06/26 01:02:46;;;;;;;8.15;6.55;;;17.80;76.40;;;;;;5071165;28;20033;-91
2021/06/26 01:05:11;;;;;;;9.02;7.13;;;17.70;76.40;;;;;;5070278;28;20074;-89
2021/06/26 01:07:37;;;;;;;9.52;7.82;;;17.70;76.50;;;;;;5072286;28;20471;-93
2021/06/26 01:10:04;;;;;;;9.07;7.28;;;17.70;76.60;;;;;;5072429;28;20529;-91
2021/06/26 01:12:30;;;;;;;9.55;8.02;;;17.70;76.60;;;;;;5071978;28;20054;-92
2021/06/26 01:14:56;;;;;;;8.85;7.28;;;17.70;76.50;;;;;;5071213;28;20025;-92
2021/06/26 01:17:21;;;;;;;9.45;7.88;;;17.70;76.50;;;;;;5071039;28;20497;-92
2021/06/26 01:19:50;;;;;;;9.15;7.35;;;17.70;76.40;;;;;;5071586;28;20020;-92
2021/06/26 01:22:21;;;;;;;7.90;6.25;;;17.70;76.40;;;;;;5070209;28;20017;-91
2021/06/26 01:24:48;;;;;;;11.65;9.60;;;17.60;76.60;;;;;;5093598;28;20035;-92
2021/06/26 01:27:14;;;;;;;11.38;8.50;;;17.60;76.80;;;;;;5067328;28;20017;-92
2021/06/26 01:29:48;;;;;;;9.15;7.40;;;17.60;77.00;;;;;;5067206;28;20045;-91
2021/06/26 01:32:15;;;;;;;10.57;8.07;;;17.60;77.00;;;;;;5068390;28;20031;-90
2021/06/26 01:34:40;;;;;;;9.80;7.43;;;17.50;76.90;;;;;;5069593;28;20023;-90
2021/06/26 01:37:06;;;;;;;11.25;8.77;;;17.50;77.00;;;;;;5070069;28;20024;-90
2021/06/26 01:39:31;;;;;;;10.20;7.75;;;17.50;77.10;;;;;;5070066;28;20025;-91
2021/06/26 01:41:57;;;;;;;9.48;7.55;;;17.50;77.20;;;;;;5070257;28;20028;-91
2021/06/26 01:44:23;;;;;;;10.80;8.43;;;17.50;77.20;;;;;;5066725;28;20037;-91
2021/06/26 01:46:49;;;;;;;10.88;8.13;;;17.50;77.30;;;;;;5071755;28;20025;-91
2021/06/26 01:49:16;;;;;;;11.55;8.88;;;17.40;77.30;;;;;;5070266;28;20066;-88
2021/06/26 01:51:42;;;;;;;10.30;8.00;;;17.40;77.40;;;;;;5070347;28;20020;-91
2021/06/26 01:54:09;;;;;;;14.23;10.52;;;17.40;77.60;;;;;;5070517;28;20168;-92
2021/06/26 01:56:38;;;;;;;13.80;10.95;;;17.30;77.80;;;;;;5071833;28;20063;-90
2021/06/26 01:59:04;;;;;;;13.27;10.10;;;17.30;78.20;;;;;;5071989;28;20051;-91
2021/06/26 02:01:30;;;;;;;13.23;10.20;;;17.20;78.40;;;;;;5067933;28;20052;-92
2021/06/26 02:03:55;;;;;;;12.23;9.02;;;17.20;78.60;;;;;;5074074;28;20060;-90
2021/06/26 02:06:21;;;;;;;12.10;8.40;;;17.20;78.60;;;;;;5074063;28;20422;-89
2021/06/26 02:08:47;;;;;;;10.45;7.93;;;17.20;78.60;;;;;;5074592;28;20108;-88
2021/06/26 02:11:15;;;;;;;11.25;8.65;;;17.30;78.50;;;;;;5073101;28;20021;-89
2021/06/26 02:13:44;;;;;;;12.68;9.20;;;17.30;78.40;;;;;;5069648;28;20040;-89
2021/06/26 02:16:10;;;;;;;10.85;8.55;;;17.30;78.60;;;;;;5074145;28;20048;-89
2021/06/26 02:18:35;;;;;;;16.10;11.55;;;17.20;78.70;;;;;;5071137;28;20021;-90
2021/06/26 02:21:02;;;;;;;11.65;8.68;;;17.20;78.90;;;;;;5075027;28;20032;-89
2021/06/26 02:23:28;;;;;;;9.15;7.15;;;17.20;78.80;;;;;;5072440;28;20548;-89
2021/06/26 02:25:54;;;;;;;13.20;9.82;;;17.30;78.80;;;;;;5073572;28;20028;-88
2021/06/26 02:28:20;;;;;;;13.07;9.77;;;17.30;78.70;;;;;;5074705;28;20027;-89
2021/06/26 02:30:47;;;;;;;14.02;10.27;;;17.30;78.60;;;;;;5074890;28;20028;-90
2021/06/26 02:33:15;;;;;;;12.85;9.75;;;17.30;78.60;;;;;;5080196;28;20028;-90
2021/06/26 02:35:41;;;;;;;12.38;8.60;;;17.30;78.70;;;;;;5073902;28;20060;-90
2021/06/26 02:38:06;;;;;;;11.75;8.95;;;17.30;78.60;;;;;;5071081;28;20500;-91
2021/06/26 02:40:32;;;;;;;20.20;11.98;;;17.30;78.50;;;;;;5068398;28;20048;-92
2021/06/26 02:42:59;;;;;;;12.27;8.70;;;17.30;78.60;;;;;;5074420;28;20024;-90
2021/06/26 02:45:25;;;;;;;13.25;8.75;;;17.30;78.60;;;;;;5069362;28;20029;-92
2021/06/26 02:47:50;;;;;;;12.95;8.07;;;17.30;78.40;;;;;;5076001;28;20021;-89
2021/06/26 02:50:16;;;;;;;12.43;8.65;;;17.30;78.30;;;;;;5074322;28;20390;-90
2021/06/26 02:52:43;;;;;;;12.50;8.82;;;17.30;78.20;;;;;;5078622;28;20013;-89
2021/06/26 02:55:10;;;;;;;10.82;8.00;;;17.30;78.00;;;;;;5086278;28;20017;-90
2021/06/26 02:57:36;;;;;;;11.13;8.23;;;17.40;77.90;;;;;;5073396;28;20029;-91
2021/06/26 03:00:03;;;;;;;11.88;8.30;;;17.30;77.70;;;;;;5074018;28;20047;-93
2021/06/26 03:02:29;;;;;;;10.60;8.45;;;17.30;77.70;;;;;;5073163;28;20094;-90
2021/06/26 03:04:54;;;;;;;11.65;8.30;;;17.30;77.70;;;;;;5074018;28;20070;-89
2021/06/26 03:07:20;;;;;;;11.32;8.20;;;17.30;77.60;;;;;;5071400;28;20012;-89
2021/06/26 03:09:45;;;;;;;12.23;8.90;;;17.20;77.80;;;;;;5067066;28;20454;-89
2021/06/26 03:12:11;;;;;;;12.77;9.25;;;17.20;78.00;;;;;;5074051;28;20024;-90
2021/06/26 03:14:37;;;;;;;14.77;10.70;;;17.20;78.10;;;;;;5072682;28;20070;-92
2021/06/26 03:17:02;;;;;;;13.48;9.88;;;17.20;78.30;;;;;;5074805;28;20038;-91
2021/06/26 03:19:28;;;;;;;13.93;8.80;;;17.20;78.30;;;;;;5073070;28;20025;-91
2021/06/26 03:21:57;;;;;;;11.68;8.52;;;17.20;78.30;;;;;;5073749;28;20648;-92
2021/06/26 03:24:22;;;;;;;12.85;9.45;;;17.20;78.20;;;;;;5073974;28;20293;-92
2021/06/26 03:26:48;;;;;;;11.07;8.02;;;17.30;78.20;;;;;;5068919;28;20059;-92
2021/06/26 03:29:14;;;;;;;12.48;8.43;;;17.30;78.10;;;;;;5073649;28;20368;-90
2021/06/26 03:31:39;;;;;;;12.02;9.25;;;17.40;78.10;;;;;;5072776;28;20111;-90
2021/06/26 03:34:05;;;;;;;11.15;8.38;;;17.40;77.90;;;;;;5071877;28;20023;-92
2021/06/26 03:36:31;;;;;;;10.65;7.95;;;17.50;77.70;;;;;;5072264;28;20040;-91
2021/06/26 03:38:57;;;;;;;13.57;8.65;;;17.50;77.50;;;;;;5063356;28;20051;-92
2021/06/26 03:41:26;;;;;;;11.65;8.70;;;17.60;77.40;;;;;;5070380;28;20028;-90
2021/06/26 03:43:53;;;;;;;12.13;8.43;;;17.60;77.40;;;;;;5071690;28;20032;-93
2021/06/26 03:46:22;;;;;;;13.50;9.40;;;17.60;77.40;;;;;;5072361;28;20032;-93
2021/06/26 03:48:47;;;;;;;11.13;8.45;;;17.60;77.60;;;;;;5073513;28;20028;-93
2021/06/26 03:51:21;;;;;;;9.70;7.63;;;17.60;77.60;;;;;;5073462;28;20024;-92
2021/06/26 03:53:48;;;;;;;12.57;9.05;;;17.60;77.60;;;;;;5063784;28;20387;-92
2021/06/26 03:56:14;;;;;;;11.82;9.57;;;17.60;77.70;;;;;;5071710;28;20503;-92
2021/06/26 03:58:41;;;;;;;12.50;8.90;;;17.60;77.70;;;;;;5073398;28;20064;-91
2021/06/26 04:01:07;;;;;;;12.45;8.43;;;17.60;77.80;;;;;;5104985;28;20070;-93
2021/06/26 04:03:32;;;;;;;11.73;7.85;;;17.70;77.80;;;;;;5072562;28;20074;-93
2021/06/26 04:05:58;;;;;;;9.32;6.78;;;17.70;77.60;;;;;;5073819;28;20527;-95
2021/06/26 04:08:24;;;;;;;10.07;7.75;;;17.80;77.60;;;;;;5070840;28;20121;-90
2021/06/26 04:10:49;;;;;;;9.75;7.13;;;17.80;77.50;;;;;;5067256;28;20565;-89
2021/06/26 04:13:15;;;;;;;8.73;7.05;;;17.80;77.30;;;;;;5071059;28;20028;-90
2021/06/26 04:15:40;;;;;;;10.10;7.70;;;17.90;77.30;;;;;;5069766;28;20033;-89
2021/06/26 04:18:06;;;;;;;10.45;7.85;;;17.90;77.10;;;;;;5071312;28;20024;-89
2021/06/26 04:20:32;;;;;;;10.90;7.97;;;18.00;77.10;;;;;;5071808;28;20036;-91
2021/06/26 04:22:57;;;;;;;10.98;7.65;;;18.00;77.20;;;;;;5071970;28;20100;-92
2021/06/26 04:25:23;;;;;;;10.50;7.63;;;18.00;77.00;;;;;;5069777;28;20487;-87
2021/06/26 04:27:49;;;;;;;11.43;7.90;;;18.10;77.10;;;;;;5069742;28;20086;-89
2021/06/26 04:30:15;;;;;;;9.63;7.32;;;18.10;76.90;;;;;;5062402;28;20539;-88
2021/06/26 04:32:42;;;;;;;10.02;7.00;;;18.20;76.90;;;;;;5068598;28;20029;-87
2021/06/26 04:35:13;;;;;;;6.78;4.82;;;18.20;76.80;;;;;;5064421;28;20071;-85
2021/06/26 04:37:39;;;;;;;10.40;7.55;;;18.20;76.60;;;;;;5085407;28;20105;-87
2021/06/26 04:40:06;;;;;;;7.57;5.80;;;18.20;76.80;;;;;;5070324;28;20117;-88
2021/06/26 04:42:31;;;;;;;7.93;5.90;;;18.20;76.80;;;;;;5067750;28;20115;-87
2021/06/26 04:44:57;;;;;;;7.00;5.20;;;18.20;76.90;;;;;;5069975;28;20728;-87
2021/06/26 04:47:27;;;;;;;7.57;6.05;;;18.20;76.90;;;;;;5069050;28;20071;-88
2021/06/26 04:49:53;;;;;;;8.52;6.30;;;18.10;77.10;;;;;;5066627;28;20032;-89
2021/06/26 04:52:18;;;;;;;7.40;6.05;;;18.10;77.10;;;;;;5072511;28;20483;-87
2021/06/26 04:54:44;;;;;;;6.55;5.05;;;18.10;77.20;;;;;;5071729;28;20040;-88
2021/06/26 04:57:09;;;;;;;8.93;7.07;;;18.00;77.20;;;;;;5070537;28;20424;-87
2021/06/26 04:59:35;;;;;;;9.85;7.55;;;18.00;77.40;;;;;;5071887;28;20021;-87
2021/06/26 05:02:01;;;;;;;8.55;6.43;;;17.90;77.50;;;;;;5069875;28;20021;-90
2021/06/26 05:04:26;;;;;;;9.00;7.47;;;17.90;77.60;;;;;;5070294;28;20028;-88
2021/06/26 05:06:52;;;;;;;7.78;6.10;;;17.90;78.30;;;;;;5066273;28;20024;-90
2021/06/26 05:09:17;;;;;;;8.85;7.20;;;18.00;77.50;;;;;;5071018;28;20104;-87
2021/06/26 05:11:43;;;;;;;9.90;7.80;;;18.00;77.50;;;;;;5067364;28;20083;-86
2021/06/26 05:14:10;;;;;;;10.70;8.43;;;18.00;77.50;;;;;;5069188;28;20067;-87
2021/06/26 05:16:35;;;;;;;11.80;9.00;;;18.00;77.60;;;;;;5074707;28;20036;-87
2021/06/26 05:19:01;;;;;;;10.25;7.82;;;18.00;77.60;;;;;;5068123;28;20020;-87
2021/06/26 05:21:27;;;;;;;10.63;8.15;;;18.00;77.70;;;;;;5067266;28;20028;-87
2021/06/26 05:23:52;;;;;;;11.30;9.02;;;18.10;77.60;;;;;;5066207;28;20025;-86
2021/06/26 05:26:18;;;;;;;12.13;9.55;;;18.10;77.60;;;;;;5071591;28;20379;-86
2021/06/26 05:28:43;;;;;;;15.70;12.90;;;18.00;77.70;;;;;;5068254;28;20074;-86
2021/06/26 05:31:09;;;;;;;14.55;10.88;;;18.00;78.10;;;;;;5068838;28;20449;-87
2021/06/26 05:33:35;;;;;;;16.08;13.13;;;18.00;78.00;;;;;;5058981;28;20039;-86
2021/06/26 05:36:00;;;;;;;16.42;12.15;;;18.00;78.20;;;;;;5065857;28;20024;-89
2021/06/26 05:38:26;;;;;;;15.85;12.40;;;18.00;78.30;;;;;;5073222;28;20025;-88
2021/06/26 05:40:51;;;;;;;10.20;7.75;;;17.90;78.30;;;;;;5073908;28;20028;-88
2021/06/26 05:43:17;;;;;;;14.85;11.05;;;18.00;78.30;;;;;;5067971;28;20024;-88
2021/06/26 05:45:43;;;;;;;17.27;13.15;;;18.00;78.20;;;;;;5069980;28;20100;-86
2021/06/26 05:48:08;;;;;;;14.65;11.00;;;18.00;78.30;;;;;;5072522;28;20016;-87
2021/06/26 05:50:34;;;;;;;13.35;10.02;;;18.10;78.30;;;;;;5071786;28;20025;-88
2021/06/26 05:53:00;;;;;;;13.13;9.85;;;18.20;78.20;;;;;;5074806;28;20031;-92
2021/06/26 05:55:27;;;;;;;11.25;9.43;;;18.20;78.00;;;;;;5069167;28;20024;-92
2021/06/26 05:57:53;;;;;;;20.90;14.77;;;18.30;77.80;;;;;;5072326;28;20020;-87
2021/06/26 06:00:20;;;;;;;13.98;10.73;;;18.30;77.90;;;;;;5072105;28;20032;-88
2021/06/26 06:02:47;;;;;;;18.70;14.57;;;18.30;77.80;;;;;;5072897;28;20034;-89
2021/06/26 06:05:14;;;;;;;18.88;14.27;;;18.20;78.10;;;;;;5067964;28;20116;-88
2021/06/26 06:07:44;;;;;;;18.23;14.57;;;18.20;78.30;;;;;;5071289;28;20028;-88
2021/06/26 06:10:14;;;;;;;19.10;14.80;;;18.10;78.40;;;;;;5072411;28;20051;-89
2021/06/26 06:12:40;;;;;;;15.43;12.20;;;18.10;78.60;;;;;;5072580;28;20032;-88
2021/06/26 06:15:08;;;;;;;17.85;14.05;;;18.20;78.70;;;;;;5068487;28;20013;-87
2021/06/26 06:17:34;;;;;;;15.38;12.10;;;18.20;78.50;;;;;;5073659;28;20031;-89
2021/06/26 06:20:03;;;;;;;13.05;10.18;;;18.30;78.30;;;;;;5067983;28;20020;-90
2021/06/26 06:22:29;;;;;;;15.98;12.02;;;18.50;78.00;;;;;;5070938;28;20643;-95
2021/06/26 06:24:54;;;;;;;19.38;14.27;;;18.60;77.60;;;;;;5071636;28;20064;-87
2021/06/26 06:27:20;;;;;;;18.45;11.30;;;18.70;77.40;;;;;;5069594;28;20052;-89
2021/06/26 06:29:45;;;;;;;15.73;12.07;;;18.80;77.20;;;;;;5068609;28;20016;-91
2021/06/26 06:32:11;;;;;;;16.13;12.07;;;18.90;76.80;;;;;;5071770;28;20108;-93
2021/06/26 06:34:37;;;;;;;12.95;10.02;;;19.00;76.60;;;;;;5073923;28;20523;-91
2021/06/26 06:37:03;;;;;;;17.92;13.10;;;19.10;76.40;;;;;;5067801;28;20096;-92
2021/06/26 06:39:28;;;;;;;12.50;9.63;;;19.20;76.20;;;;;;5063820;28;21476;-95
2021/06/26 06:41:54;;;;;;;14.88;11.52;;;19.30;76.00;;;;;;5076349;28;20075;-93
2021/06/26 06:44:19;;;;;;;16.73;12.80;;;19.50;75.80;;;;;;5071586;28;20017;-92
2021/06/26 06:46:45;;;;;;;12.30;9.45;;;19.60;75.40;;;;;;5068842;28;20021;-93
2021/06/26 06:49:11;;;;;;;12.65;10.23;;;19.80;75.20;;;;;;5059919;28;20533;-92
2021/06/26 06:51:37;;;;;;;14.30;10.73;;;20.00;74.70;;;;;;5073934;28;20031;-92
2021/06/26 06:54:03;;;;;;;15.32;11.77;;;20.10;74.10;;;;;;5073749;28;20040;-93
2021/06/26 06:56:29;;;;;;;15.77;11.95;;;20.20;73.50;;;;;;5072761;28;20028;-93
2021/06/26 06:58:54;;;;;;;12.63;10.35;;;20.30;73.30;;;;;;5074894;28;20028;-94
2021/06/26 07:01:20;;;;;;;12.55;10.52;;;20.40;72.80;;;;;;5074754;28;20078;-96
2021/06/26 07:03:45;;;;;;;10.95;8.57;;;20.50;72.50;;;;;;5075069;28;20401;-96
2021/06/26 07:06:11;;;;;;;10.57;8.77;;;20.70;72.20;;;;;;5069043;28;20047;-96
2021/06/26 07:08:37;;;;;;;12.43;10.60;;;21.00;71.80;;;;;;5074824;28;20157;-96
2021/06/26 07:11:03;;;;;;;11.25;9.10;;;21.10;70.40;;;;;;5073483;28;20028;-96
2021/06/26 07:13:28;;;;;;;11.48;9.27;;;21.20;70.20;;;;;;5061892;28;20098;-96
2021/06/26 07:15:54;;;;;;;12.80;10.00;;;21.20;69.80;;;;;;5070126;28;20084;-96
2021/06/26 07:18:20;;;;;;;10.40;8.27;;;21.20;69.30;;;;;;5073504;28;20060;-96
2021/06/26 07:20:46;;;;;;;10.40;8.02;;;21.40;69.70;;;;;;5073295;28;20046;-96
2021/06/26 07:23:12;;;;;;;9.30;7.80;;;21.60;69.10;;;;;;5064725;28;20464;-96
2021/06/26 07:25:38;;;;;;;11.77;8.75;;;21.80;68.80;;;;;;5074042;28;20612;-96
2021/06/26 07:28:04;;;;;;;9.73;7.97;;;22.00;68.20;;;;;;5074789;28;20028;-96
2021/06/26 07:30:30;;;;;;;8.65;6.43;;;22.10;68.00;;;;;;5073267;28;20028;-96
2021/06/26 07:32:56;;;;;;;9.23;6.50;;;22.40;67.90;;;;;;5059305;28;20074;-95
2021/06/26 07:35:22;;;;;;;9.60;7.63;;;22.70;67.40;;;;;;5072946;28;20391;-96
2021/06/26 07:37:48;;;;;;;10.75;7.80;;;22.80;65.90;;;;;;5065011;28;20406;-96
2021/06/26 07:40:14;;;;;;;8.55;7.35;;;22.90;66.20;;;;;;5072687;28;20016;-96
2021/06/26 07:42:40;;;;;;;8.63;7.25;;;23.10;65.80;;;;;;5073072;28;20394;-96
2021/06/26 07:45:06;;;;;;;8.40;7.22;;;23.20;65.40;;;;;;5073563;28;20028;-96
2021/06/26 07:47:33;;;;;;;8.43;7.38;;;23.10;64.30;;;;;;5072921;28;20051;-96
2021/06/26 07:49:59;;;;;;;10.40;8.52;;;23.00;64.00;;;;;;5074253;28;21731;-96
2021/06/26 07:52:25;;;;;;;9.57;7.63;;;22.90;62.50;;;;;;5072832;28;20025;-96
2021/06/26 07:54:50;;;;;;;8.35;7.05;;;22.70;62.90;;;;;;5074663;28;20040;-96
2021/06/26 07:57:16;;;;;;;5.95;5.18;;;22.60;63.90;;;;;;5073974;28;20013;-96
2021/06/26 07:59:42;;;;;;;7.93;6.45;;;22.80;64.20;;;;;;5074251;28;20031;-95
2021/06/26 08:02:07;;;;;;;6.53;5.65;;;23.00;63.90;;;;;;5073537;28;20082;-96
2021/06/26 08:04:33;;;;;;;8.98;7.82;;;23.20;63.00;;;;;;5074416;28;20044;-95
2021/06/26 08:06:58;;;;;;;7.63;6.25;;;23.30;61.90;;;;;;5073873;28;20017;-95
2021/06/26 08:09:24;;;;;;;10.40;8.73;;;23.20;62.10;;;;;;5074641;28;20115;-96
2021/06/26 08:11:50;;;;;;;9.68;8.45;;;23.30;60.90;;;;;;5074684;28;20024;-95
2021/06/26 08:14:16;;;;;;;9.80;7.80;;;23.20;61.20;;;;;;5073665;28;20052;-96
2021/06/26 08:16:41;;;;;;;11.65;10.32;;;23.20;61.50;;;;;;5073836;28;20020;-96
2021/06/26 08:19:07;;;;;;;8.38;7.03;;;23.30;60.80;;;;;;5074006;28;20023;-96
2021/06/26 08:21:32;;;;;;;9.25;7.55;;;23.30;61.00;;;;;;5073461;28;20044;-96
2021/06/26 08:23:58;;;;;;;10.15;8.32;;;23.50;61.30;;;;;;5074753;28;20524;-94
2021/06/26 08:26:24;;;;;;;11.13;8.85;;;23.70;60.80;;;;;;5074785;28;20559;-95
2021/06/26 08:28:50;;;;;;;8.32;7.10;;;23.70;60.70;;;;;;5073597;28;20094;-95
2021/06/26 08:31:16;;;;;;;11.85;10.15;;;23.90;61.10;;;;;;5074944;28;20388;-96
2021/06/26 08:33:41;;;;;;;9.18;8.00;;;23.90;59.90;;;;;;5074759;28;20040;-96
2021/06/26 08:36:07;;;;;;;9.43;7.80;;;23.90;60.10;;;;;;5075123;28;20042;-96
2021/06/26 08:38:33;;;;;;;8.13;7.13;;;24.00;60.20;;;;;;5073684;28;20021;-96
2021/06/26 08:40:59;;;;;;;9.45;7.82;;;24.10;60.00;;;;;;5078924;28;20070;-94
2021/06/26 08:43:27;;;;;;;9.85;8.68;;;24.10;59.60;;;;;;5071357;28;20016;-96
2021/06/26 08:45:53;;;;;;;10.82;9.30;;;24.20;59.40;;;;;;5073833;28;20032;-95
2021/06/26 08:48:19;;;;;;;8.52;7.18;;;24.10;58.90;;;;;;5105869;28;20016;-95
2021/06/26 08:50:45;;;;;;;9.70;8.00;;;24.30;59.40;;;;;;5072819;28;20024;-95
2021/06/26 08:53:11;;;;;;;10.65;8.57;;;24.30;58.70;;;;;;5072524;28;20068;-96
2021/06/26 08:55:36;;;;;;;7.85;6.85;;;24.20;58.50;;;;;;5071837;28;20021;-96
2021/06/26 08:58:04;;;;;;;11.88;9.48;;;24.20;58.80;;;;;;5082692;28;20467;-96
2021/06/26 09:00:30;;;;;;;7.57;6.43;;;24.10;58.40;;;;;;5071598;28;20021;-96
2021/06/26 09:03:16;;;;;;;9.77;7.72;;;24.30;59.00;;;;;;5078518;28;20032;-95
2021/06/26 09:05:45;;;;;;;8.98;7.90;;;24.30;58.30;;;;;;5065460;28;20064;-95
2021/06/26 09:08:16;;;;;;;9.50;7.78;;;24.30;57.60;;;;;;5056206;28;20471;-95
2021/06/26 09:10:50;;;;;;;9.15;8.00;;;24.30;57.50;;;;;;5070705;28;20055;-95
2021/06/26 09:13:25;;;;;;;10.40;8.80;;;24.20;57.20;;;;;;5078416;28;20081;-95
2021/06/26 09:16:04;;;;;;;9.77;7.78;;;24.10;56.90;;;;;;5068886;28;20028;-96
2021/06/26 09:18:42;;;;;;;11.43;9.98;;;24.20;58.00;;;;;;5072455;28;20062;-95
2021/06/26 09:21:28;;;;;;;8.43;7.32;;;24.20;57.40;;;;;;5076344;28;20115;-96
2021/06/26 09:24:09;;;;;;;8.98;7.53;;;24.40;58.00;;;;;;5093195;28;20033;-95
2021/06/26 09:26:40;;;;;;;10.70;9.43;;;24.50;57.30;;;;;;5071307;28;20043;-96
2021/06/26 09:29:14;;;;;;;10.10;7.30;;;24.40;57.20;;;;;;5069676;28;20111;-96
2021/06/26 09:31:54;;;;;;;8.68;6.43;;;24.50;57.80;;;;;;5063816;28;20664;-96
2021/06/26 09:34:23;;;;;;;8.02;6.95;;;24.70;57.30;;;;;;5071142;28;20029;-95
2021/06/26 09:37:06;;;;;;;8.27;6.95;;;24.70;56.00;;;;;;5071224;28;20032;-95
2021/06/26 09:39:40;;;;;;;8.75;7.07;;;24.70;56.10;;;;;;5071237;28;20024;-95
2021/06/26 09:42:36;;;;;;;12.57;9.68;;;24.90;55.70;;;;;;5072347;28;20055;-95
2021/06/26 09:45:08;;;;;;;11.88;9.52;;;24.80;53.80;;;;;;5063671;28;20055;-96
2021/06/26 09:47:39;;;;;;;7.25;5.88;;;24.60;55.00;;;;;;5072886;28;20103;-96
2021/06/26 09:50:15;;;;;;;9.80;7.10;;;24.70;55.80;;;;;;5071974;28;20111;-95
2021/06/26 09:53:03;;;;;;;11.73;9.55;;;24.80;55.70;;;;;;5072260;28;20078;-95
2021/06/26 09:55:29;;;;;;;9.60;8.60;;;25.00;55.20;;;;;;5071560;28;20489;-96
2021/06/26 09:57:58;;;;;;;5.68;4.80;;;25.10;54.90;;;;;;5072161;28;20016;-92
2021/06/26 10:00:26;;;;;;;9.90;7.95;;;25.30;55.30;;;;;;5071214;28;20478;-91
2021/06/26 10:02:52;;;;;;;6.95;6.20;;;25.40;54.60;;;;;;5069908;28;20152;-93
2021/06/26 10:05:19;;;;;;;9.30;7.65;;;25.70;54.80;;;;;;5070748;28;20052;-92
2021/06/26 10:07:47;;;;;;;9.80;7.55;;;25.60;54.50;;;;;;5068535;28;20021;-96
2021/06/26 10:10:15;;;;;;;9.32;8.25;;;25.50;54.40;;;;;;5069987;28;20039;-96
2021/06/26 10:12:42;;;;;;;10.45;9.35;;;25.40;54.10;;;;;;5070440;28;20096;-96
2021/06/26 10:15:09;;;;;;;11.38;9.10;;;25.50;54.40;;;;;;5071036;28;20027;-96
2021/06/26 10:17:35;;;;;;;7.43;6.63;;;25.70;54.00;;;;;;5072644;28;20498;-96
2021/06/26 10:20:06;;;;;;;10.80;8.40;;;25.90;53.90;;;;;;5074433;28;20044;-96
2021/06/26 10:22:40;;;;;;;9.33;8.30;;;26.10;53.00;;;;;;5080332;28;20025;-96
2021/06/26 10:25:08;;;;;;;11.80;9.60;;;26.10;52.70;;;;;;5084529;28;20064;-96
2021/06/26 10:27:34;;;;;;;9.35;7.97;;;26.10;52.40;;;;;;5082403;28;20016;-95
2021/06/26 10:30:20;;;;;;;7.20;6.43;;;26.20;52.40;;;;;;5081102;28;20043;-95
2021/06/26 10:32:54;;;;;;;7.55;6.50;;;26.40;52.70;;;;;;5088782;28;20021;-94
2021/06/26 10:35:21;;;;;;;10.43;9.30;;;26.50;52.50;;;;;;5073629;28;20031;-96
2021/06/26 10:38:02;;;;;;;8.35;6.95;;;26.30;51.60;;;;;;5077284;28;20020;-96
2021/06/26 10:41:09;;;;;;;9.60;8.38;;;26.20;51.90;;;;;;5076519;28;20040;-96
2021/06/26 10:43:34;;;;;;;7.75;6.25;;;25.90;50.90;;;;;;5049480;28;20483;-96
2021/06/26 10:46:15;;;;;;;7.82;6.70;;;25.70;51.00;;;;;;5074370;28;20048;-96
2021/06/26 10:48:53;;;;;;;9.88;6.80;;;25.70;51.60;;;;;;5073180;28;20012;-96
2021/06/26 10:51:40;;;;;;;8.90;7.97;;;25.80;51.70;;;;;;5075593;28;20348;-96
2021/06/26 10:54:17;;;;;;;9.52;8.50;;;26.00;51.50;;;;;;5071564;28;20042;-95
2021/06/26 10:56:45;;;;;;;7.57;6.78;;;25.90;50.70;;;;;;5074949;28;20020;-96
2021/06/26 10:59:16;;;;;;;10.85;9.25;;;25.80;51.20;;;;;;5075076;28;20025;-96
2021/06/26 11:01:57;;;;;;;10.48;9.38;;;25.70;50.50;;;;;;5064533;28;20447;-96
2021/06/26 11:04:24;;;;;;;7.93;6.80;;;25.70;50.80;;;;;;5068844;28;20044;-96
2021/06/26 11:07:01;;;;;;;11.10;9.07;;;25.80;51.00;;;;;;5073937;28;20020;-94
2021/06/26 11:09:38;;;;;;;7.97;6.57;;;26.00;50.10;;;;;;5072859;28;20082;-93
2021/06/26 11:12:15;;;;;;;9.95;8.68;;;26.30;50.30;;;;;;5062561;28;20067;-93
2021/06/26 11:14:55;;;;;;;10.73;8.48;;;26.50;49.80;;;;;;5073719;28;20033;-92
2021/06/26 11:17:33;;;;;;;9.70;8.70;;;26.60;49.80;;;;;;5074274;28;20024;-93
2021/06/26 11:19:58;;;;;;;8.35;7.43;;;26.60;49.50;;;;;;5068655;28;20024;-91
2021/06/26 11:22:24;;;;;;;10.38;8.85;;;26.50;49.90;;;;;;5073868;28;20039;-93
2021/06/26 11:24:49;;;;;;;10.57;8.93;;;26.60;49.50;;;;;;5077091;28;20031;-92
2021/06/26 11:27:20;;;;;;;9.77;8.48;;;26.60;49.10;;;;;;5077405;28;20394;-95
2021/06/26 11:29:48;;;;;;;9.70;7.80;;;26.70;49.00;;;;;;5076013;28;20071;-95
2021/06/26 11:32:25;;;;;;;7.90;6.60;;;26.80;48.80;;;;;;5074729;28;20023;-96
2021/06/26 11:34:58;;;;;;;9.20;8.30;;;27.10;48.90;;;;;;5076015;28;20048;-95
2021/06/26 11:37:50;;;;;;;6.32;4.57;;;27.50;48.10;;;;;;5109066;28;20044;-95
2021/06/26 11:40:24;;;;;;;8.23;6.03;;;27.70;48.10;;;;;;5074060;28;20047;-96
2021/06/26 11:42:53;;;;;;;10.85;8.38;;;27.80;47.20;;;;;;5074796;28;20691;-96
2021/06/26 11:45:20;;;;;;;6.70;5.97;;;27.40;46.10;;;;;;5074276;28;20040;-95
2021/06/26 11:47:46;;;;;;;9.32;8.20;;;27.40;47.20;;;;;;5097396;28;20028;-94
2021/06/26 11:50:17;;;;;;;10.70;8.65;;;27.30;46.50;;;;;;5069155;28;20037;-96
2021/06/26 11:52:43;;;;;;;11.98;10.20;;;27.40;46.90;;;;;;5065012;28;20030;-96
2021/06/26 11:55:10;;;;;;;7.78;6.95;;;27.20;45.60;;;;;;5082535;28;20120;-95
2021/06/26 11:57:36;;;;;;;12.75;10.02;;;27.20;46.80;;;;;;5076368;28;20021;-96
2021/06/26 12:00:04;;;;;;;9.25;8.13;;;27.20;46.10;;;;;;5077204;28;20017;-96
2021/06/26 12:02:35;;;;;;;13.55;10.88;;;27.20;46.80;;;;;;5076422;28;20467;-95
2021/06/26 12:05:02;;;;;;;8.10;7.30;;;27.10;45.50;;;;;;5079486;28;20491;-95
2021/06/26 12:07:38;;;;;;;10.45;8.95;;;26.90;46.50;;;;;;5075414;28;20266;-96
2021/06/26 12:10:07;;;;;;;8.23;6.78;;;26.90;46.30;;;;;;5084757;28;20020;-96
2021/06/26 12:12:36;;;;;;;9.32;8.30;;;26.80;46.80;;;;;;5086167;28;20020;-96
2021/06/26 12:15:03;;;;;;;9.90;7.88;;;26.70;46.80;;;;;;5075051;28;20064;-96
2021/06/26 12:17:28;;;;;;;10.38;9.27;;;26.60;46.70;;;;;;5075839;28;20021;-96
2021/06/26 12:20:05;;;;;;;12.38;10.43;;;26.70;46.40;;;;;;5077118;28;20088;-96
2021/06/26 12:22:31;;;;;;;8.98;8.02;;;26.60;46.20;;;;;;5096525;28;20031;-96
2021/06/26 12:25:08;;;;;;;9.43;7.40;;;26.60;47.10;;;;;;5081953;28;20032;-96
2021/06/26 12:27:34;;;;;;;9.85;8.30;;;26.70;47.00;;;;;;5076541;28;20025;-96
2021/06/26 12:30:04;;;;;;;10.48;7.10;;;26.60;47.20;;;;;;5089953;28;20039;-95
2021/06/26 12:32:35;;;;;;;7.63;6.43;;;26.70;47.50;;;;;;5056557;28;20017;-96
2021/06/26 12:35:02;;;;;;;5.85;5.25;;;26.70;47.60;;;;;;5070042;28;20024;-96
2021/06/26 12:37:28;;;;;;;9.35;8.13;;;26.70;47.90;;;;;;5076642;28;20073;-95
2021/06/26 12:40:15;;;;;;;7.20;5.78;;;26.70;47.80;;;;;;5094399;28;20028;-95
2021/06/26 12:43:06;;;;;;;5.95;5.30;;;26.80;48.00;;;;;;5095307;28;20031;-96
2021/06/26 12:45:35;;;;;;;9.93;8.93;;;26.80;48.10;;;;;;5096357;28;20036;-96